createdAt,value
2023-01-12T00:01:36.846Z,12.80
2023-01-12T00:04:03.633Z,10.30
2023-01-12T00:06:32.288Z,10.05
2023-01-12T00:09:02.366Z,9.90
2023-01-12T00:11:29.380Z,10.00
2023-01-12T00:13:56.097Z,11.30
2023-01-12T00:16:35.982Z,11.40
2023-01-12T00:19:12.915Z,14.07
2023-01-12T00:22:06.859Z,10.10
2023-01-12T00:24:39.123Z,9.18
2023-01-12T00:29:36.564Z,12.45
2023-01-12T00:32:04.819Z,11.95
2023-01-12T00:34:31.629Z,11.25
2023-01-12T00:37:00.308Z,12.10
2023-01-12T00:39:26.999Z,11.48
2023-01-12T00:42:12.082Z,13.10
2023-01-12T00:44:57.456Z,11.98
2023-01-12T00:47:24.062Z,11.13
2023-01-12T00:49:50.783Z,12.52
2023-01-12T00:52:29.903Z,10.50
2023-01-12T00:54:57.493Z,12.05
2023-01-12T00:57:24.258Z,12.25
2023-01-12T00:59:54.949Z,11.80
2023-01-12T01:02:22.079Z,12.90
2023-01-12T01:04:49.532Z,15.68
2023-01-12T01:07:16.193Z,14.05
2023-01-12T01:09:44.269Z,11.40
2023-01-12T01:12:10.999Z,12.65
2023-01-12T01:14:37.626Z,13.93
2023-01-12T01:17:04.204Z,11.32
2023-01-12T01:19:30.818Z,10.55
2023-01-12T01:21:57.394Z,11.85
2023-01-12T01:24:24.171Z,12.50
2023-01-12T01:26:51.566Z,13.07
2023-01-12T01:29:18.668Z,12.45
2023-01-12T01:31:47.770Z,13.38
2023-01-12T01:34:14.825Z,13.18
2023-01-12T01:36:41.893Z,9.80
2023-01-12T01:39:08.861Z,13.38
2023-01-12T01:41:35.534Z,13.07
2023-01-12T01:44:26.745Z,13.10
2023-01-12T01:47:03.441Z,12.52
2023-01-12T01:49:32.451Z,12.52
2023-01-12T01:52:13.720Z,14.00
2023-01-12T01:54:46.496Z,13.77
2023-01-12T01:57:14.872Z,11.80
2023-01-12T01:59:48.936Z,13.00
2023-01-12T02:02:16.543Z,13.65
2023-01-12T02:04:43.464Z,13.90
2023-01-12T02:07:10.959Z,11.55
2023-01-12T02:09:38.534Z,13.05
2023-01-12T02:12:41.083Z,13.25
2023-01-12T02:15:26.703Z,13.70
2023-01-12T02:17:59.080Z,13.98
2023-01-12T02:20:47.223Z,13.70
2023-01-12T02:23:16.911Z,12.90
2023-01-12T02:26:01.385Z,11.88
2023-01-12T02:28:49.934Z,11.98
2023-01-12T02:31:51.250Z,11.88
2023-01-12T02:34:36.502Z,12.38
2023-01-12T02:37:09.336Z,15.20
2023-01-12T02:39:50.768Z,12.63
2023-01-12T02:42:41.343Z,13.00
2023-01-12T02:45:23.461Z,11.98
2023-01-12T02:47:56.029Z,10.65
2023-01-12T02:50:40.005Z,9.60
2023-01-12T02:53:12.716Z,12.07
2023-01-12T02:55:41.237Z,9.95
2023-01-12T02:58:12.711Z,10.98
2023-01-12T03:00:43.009Z,10.48
2023-01-12T03:03:09.653Z,11.95
2023-01-12T03:05:40.949Z,12.40
2023-01-12T03:08:14.072Z,12.85
2023-01-12T03:11:06.802Z,9.90
2023-01-12T03:13:37.392Z,13.20
2023-01-12T03:16:06.469Z,19.17
2023-01-12T03:18:38.723Z,16.05
2023-01-12T03:21:20.708Z,17.77
2023-01-12T03:23:54.248Z,21.08
2023-01-12T03:26:27.855Z,21.38
2023-01-12T03:29:03.954Z,28.08
2023-01-12T03:31:31.097Z,19.60
2023-01-12T03:33:58.262Z,32.90
2023-01-12T03:36:35.528Z,31.98
2023-01-12T03:39:20.287Z,22.63
2023-01-12T03:41:57.554Z,27.63
2023-01-12T03:44:40.226Z,29.92
2023-01-12T03:47:20.830Z,26.33
2023-01-12T03:49:52.824Z,21.52
2023-01-12T03:52:22.059Z,25.52
2023-01-12T03:54:50.083Z,23.05
2023-01-12T03:57:17.623Z,23.52
2023-01-12T03:59:44.315Z,27.02
2023-01-12T04:02:10.961Z,22.50
2023-01-12T04:04:37.670Z,21.42
2023-01-12T04:07:04.425Z,21.75
2023-01-12T04:09:31.250Z,19.42
2023-01-12T04:12:13.057Z,21.02
2023-01-12T04:14:40.554Z,21.15
2023-01-12T04:17:09.476Z,25.75
2023-01-12T04:19:36.094Z,16.83
2023-01-12T04:22:20.999Z,17.77
2023-01-12T04:24:48.695Z,14.45
2023-01-12T04:27:16.310Z,12.40
2023-01-12T04:29:43.163Z,13.40
2023-01-12T04:32:10.216Z,11.35
2023-01-12T04:34:37.012Z,12.52
2023-01-12T04:37:03.952Z,13.18
2023-01-12T04:39:30.499Z,12.82
2023-01-12T04:41:57.284Z,12.13
2023-01-12T04:44:23.903Z,11.50
2023-01-12T04:46:51.467Z,15.52
2023-01-12T04:49:18.173Z,15.32
2023-01-12T04:51:45.259Z,14.20
2023-01-12T04:54:12.227Z,14.70
2023-01-12T04:56:39.099Z,16.73
2023-01-12T04:59:07.377Z,17.35
2023-01-12T05:01:34.238Z,16.05
2023-01-12T05:04:01.138Z,14.48
2023-01-12T05:06:28.920Z,16.65
2023-01-12T05:09:14.327Z,17.50
2023-01-12T05:11:40.963Z,13.40
2023-01-12T05:14:07.703Z,17.63
2023-01-12T05:16:34.390Z,33.35
2023-01-12T05:19:01.078Z,16.77
2023-01-12T05:21:27.659Z,18.65
2023-01-12T05:23:54.377Z,18.70
2023-01-12T05:26:21.234Z,18.83
2023-01-12T05:28:49.804Z,17.45
2023-01-12T05:31:17.159Z,17.70
2023-01-12T05:33:43.921Z,18.40
2023-01-12T05:36:13.867Z,19.60
2023-01-12T05:38:41.156Z,19.38
2023-01-12T05:41:10.303Z,18.45
2023-01-12T05:43:52.205Z,17.52
2023-01-12T05:46:30.703Z,16.55
2023-01-12T05:48:58.110Z,18.58
2023-01-12T05:51:27.288Z,14.15
2023-01-12T05:53:54.987Z,17.23
2023-01-12T05:56:25.863Z,16.10
2023-01-12T05:58:58.646Z,16.60
2023-01-12T06:01:25.919Z,19.48
2023-01-12T06:03:54.217Z,19.40
2023-01-12T06:06:22.526Z,18.92
2023-01-12T06:08:52.145Z,20.02
2023-01-12T06:11:38.774Z,21.95
2023-01-12T06:14:05.849Z,17.95
2023-01-12T06:16:32.511Z,26.33
2023-01-12T06:18:59.089Z,20.40
2023-01-12T06:21:25.825Z,22.42
2023-01-12T06:23:52.559Z,19.67
2023-01-12T06:26:19.246Z,26.98
2023-01-12T06:28:45.970Z,21.88
2023-01-12T06:31:14.331Z,19.60
2023-01-12T06:33:41.479Z,21.77
2023-01-12T06:36:09.171Z,22.80
2023-01-12T06:38:37.323Z,21.98
2023-01-12T06:41:29.276Z,23.00
2023-01-12T06:43:56.406Z,19.95
2023-01-12T06:46:23.106Z,18.30
2023-01-12T06:48:49.885Z,19.10
2023-01-12T06:51:16.524Z,17.23
2023-01-12T06:53:43.189Z,17.05
2023-01-12T06:56:09.790Z,20.58
2023-01-12T06:58:38.290Z,19.52
2023-01-12T07:01:05.101Z,18.58
2023-01-12T07:03:31.668Z,16.38
2023-01-12T07:05:59.446Z,18.50
2023-01-12T07:08:26.654Z,22.83
2023-01-12T07:10:53.294Z,20.38
2023-01-12T07:13:20.216Z,23.35
2023-01-12T07:15:46.835Z,18.55
2023-01-12T07:18:13.560Z,17.75
2023-01-12T07:20:40.129Z,18.50
2023-01-12T07:23:06.698Z,19.15
2023-01-12T07:25:33.453Z,17.17
2023-01-12T07:28:00.400Z,16.63
2023-01-12T07:30:27.691Z,15.05
2023-01-12T07:32:55.179Z,11.65
2023-01-12T07:35:22.105Z,17.63
2023-01-12T07:37:50.549Z,14.15
2023-01-12T07:40:18.104Z,12.82
2023-01-12T07:42:44.853Z,14.65
2023-01-12T07:45:11.944Z,14.93
2023-01-12T07:47:39.379Z,12.07
2023-01-12T07:50:06.956Z,12.07
2023-01-12T07:52:33.883Z,13.07
2023-01-12T07:55:00.562Z,11.32
2023-01-12T07:57:27.245Z,12.57
2023-01-12T07:59:53.858Z,13.88
2023-01-12T08:02:20.580Z,13.07
2023-01-12T08:04:47.511Z,13.32
2023-01-12T08:07:15.216Z,9.40
2023-01-12T08:09:42.055Z,13.18
2023-01-12T08:12:08.759Z,9.65
2023-01-12T08:14:38.271Z,8.07
2023-01-12T08:17:12.693Z,8.55
2023-01-12T08:19:45.061Z,5.97
2023-01-12T08:25:10.856Z,6.00
2023-01-12T08:27:43.484Z,4.35
2023-01-12T08:30:13.355Z,6.57
2023-01-12T08:32:40.106Z,5.53
2023-01-12T08:35:07.636Z,3.78
2023-01-12T08:37:35.319Z,6.50
2023-01-12T08:40:04.813Z,4.60
2023-01-12T08:42:31.878Z,4.35
2023-01-12T08:44:58.723Z,4.95
2023-01-12T08:47:27.723Z,6.07
2023-01-12T08:49:54.956Z,4.15
2023-01-12T08:52:21.839Z,4.35
2023-01-12T08:54:49.286Z,3.00
2023-01-12T08:57:19.914Z,8.45
2023-01-12T08:59:46.676Z,5.60
2023-01-12T09:02:14.743Z,5.68
2023-01-12T09:04:41.888Z,4.20
2023-01-12T09:07:09.904Z,5.30
2023-01-12T09:09:36.971Z,4.35
2023-01-12T09:12:04.370Z,4.57
2023-01-12T09:14:30.983Z,9.27
2023-01-12T09:16:57.657Z,6.93
2023-01-12T09:19:24.598Z,4.90
2023-01-12T09:21:51.244Z,5.65
2023-01-12T09:24:17.850Z,3.88
2023-01-12T09:26:46.359Z,4.43
2023-01-12T09:29:14.250Z,3.75
2023-01-12T09:31:43.718Z,4.18
2023-01-12T09:34:11.100Z,5.50
2023-01-12T09:36:39.657Z,5.82
2023-01-12T09:39:15.529Z,7.88
2023-01-12T09:42:08.981Z,6.97
2023-01-12T09:44:59.511Z,5.35
2023-01-12T09:47:53.770Z,5.82
2023-01-12T09:50:31.729Z,4.72
2023-01-12T09:53:07.441Z,5.95
2023-01-12T09:55:47.758Z,5.72
2023-01-12T09:58:45.295Z,6.78
2023-01-12T10:01:24.284Z,4.68
2023-01-12T10:03:56.389Z,6.47
2023-01-12T10:06:23.086Z,5.40
2023-01-12T10:08:52.211Z,7.03
2023-01-12T10:11:43.308Z,5.00
2023-01-12T10:14:28.268Z,5.45
2023-01-12T10:17:00.550Z,5.88
2023-01-12T10:22:38.410Z,9.50
2023-01-12T10:25:23.054Z,6.05
2023-01-12T10:27:52.802Z,6.18
2023-01-12T10:30:31.952Z,4.10
2023-01-12T10:33:16.873Z,4.03
2023-01-12T10:36:09.157Z,3.92
2023-01-12T10:38:52.527Z,4.50
2023-01-12T10:41:24.356Z,4.15
2023-01-12T10:43:56.705Z,3.30
2023-01-12T10:48:54.321Z,4.50
2023-01-12T10:51:30.861Z,4.03
2023-01-12T10:54:08.954Z,5.35
2023-01-12T10:56:52.869Z,2.78
2023-01-12T10:59:22.177Z,3.20
2023-01-12T11:02:14.567Z,4.35
2023-01-12T11:04:48.530Z,2.83
2023-01-12T11:07:25.760Z,5.75
2023-01-12T11:09:58.377Z,4.25
2023-01-12T11:12:35.607Z,3.60
2023-01-12T11:15:14.379Z,4.07
2023-01-12T11:17:52.368Z,4.47
2023-01-12T11:20:30.419Z,2.20
2023-01-12T11:23:03.036Z,3.78
2023-01-12T11:25:43.510Z,4.35
2023-01-12T11:28:34.852Z,3.00
2023-01-12T11:31:12.431Z,3.22
2023-01-12T11:33:42.627Z,3.75
2023-01-12T11:36:31.914Z,3.35
2023-01-12T11:39:02.158Z,5.70
2023-01-12T11:42:06.098Z,7.63
2023-01-12T11:44:36.743Z,2.85
2023-01-12T11:47:20.593Z,3.95
2023-01-12T11:49:52.882Z,4.70
2023-01-12T11:54:46.285Z,5.60
2023-01-12T11:57:15.593Z,4.32
2023-01-12T11:59:54.091Z,4.43
2023-01-12T12:02:33.195Z,5.18
2023-01-12T12:05:18.123Z,6.47
2023-01-12T12:08:05.873Z,4.97
2023-01-12T12:10:41.174Z,13.05
2023-01-12T12:13:19.856Z,7.90
2023-01-12T12:16:07.890Z,5.93
2023-01-12T12:18:37.620Z,4.70
2023-01-12T12:21:13.010Z,8.45
2023-01-12T12:23:45.334Z,7.45
2023-01-12T12:29:05.202Z,6.68
2023-01-12T12:31:53.396Z,8.88
2023-01-12T12:34:38.248Z,8.38
2023-01-12T12:37:32.363Z,7.63
2023-01-12T12:40:17.047Z,6.22
2023-01-12T12:43:22.626Z,8.07
2023-01-12T12:46:12.141Z,4.82
2023-01-12T12:48:59.308Z,6.53
2023-01-12T12:51:29.016Z,5.38
2023-01-12T12:53:56.268Z,3.90
2023-01-12T12:56:25.138Z,3.47
2023-01-12T12:58:57.390Z,4.72
2023-01-12T13:04:03.150Z,6.97
2023-01-12T13:06:40.210Z,4.30
2023-01-12T13:09:12.731Z,5.20
2023-01-12T13:11:45.231Z,6.68
2023-01-12T13:14:42.553Z,4.15
2023-01-12T13:17:21.219Z,7.18
2023-01-12T13:20:24.252Z,7.15
2023-01-12T13:22:51.686Z,5.95
2023-01-12T13:25:22.294Z,11.20
2023-01-12T13:28:00.785Z,9.45
2023-01-12T13:30:30.339Z,6.32
2023-01-12T13:33:01.223Z,8.73
2023-01-12T13:35:33.491Z,7.97
2023-01-12T13:40:31.797Z,6.90
2023-01-12T13:43:19.772Z,12.10
2023-01-12T13:45:54.688Z,8.82
2023-01-12T13:48:21.938Z,7.50
2023-01-12T13:50:53.788Z,8.65
2023-01-12T13:53:28.602Z,11.00
2023-01-12T13:56:03.291Z,6.60
2023-01-12T13:58:38.958Z,8.02
2023-01-12T14:01:08.177Z,10.98
2023-01-12T14:03:55.031Z,7.97
2023-01-12T14:06:29.243Z,9.80
2023-01-12T14:09:10.037Z,10.68
2023-01-12T14:11:55.137Z,9.85
2023-01-12T14:14:43.384Z,11.35
2023-01-12T14:17:36.267Z,12.65
2023-01-12T14:20:02.977Z,12.38
2023-01-12T14:22:29.904Z,11.65
2023-01-12T14:25:16.037Z,13.48
2023-01-12T14:27:50.595Z,16.33
2023-01-12T14:30:17.523Z,10.43
2023-01-12T14:32:46.327Z,12.98
2023-01-12T14:35:18.567Z,10.80
2023-01-12T14:40:28.265Z,12.50
2023-01-12T14:43:13.814Z,12.43
2023-01-12T14:46:14.031Z,14.30
2023-01-12T14:48:43.767Z,13.52
2023-01-12T14:51:18.084Z,11.85
2023-01-12T14:53:47.779Z,18.58
2023-01-12T14:56:17.180Z,17.05
2023-01-12T14:58:48.397Z,16.02
2023-01-12T15:01:33.765Z,17.02
2023-01-12T15:04:00.910Z,18.13
2023-01-12T15:06:27.912Z,12.60
2023-01-12T15:08:58.133Z,10.25
2023-01-12T15:11:38.375Z,13.52
2023-01-12T15:14:06.888Z,14.13
2023-01-12T15:16:52.072Z,15.30
2023-01-12T15:19:37.307Z,11.18
2023-01-12T15:22:27.634Z,16.98
2023-01-12T15:25:14.178Z,15.20
2023-01-12T15:27:40.816Z,14.60
2023-01-12T15:30:09.126Z,12.15
2023-01-12T15:32:48.281Z,14.73
2023-01-12T15:35:18.083Z,15.95
2023-01-12T15:37:45.187Z,13.23
2023-01-12T15:40:15.177Z,18.63
2023-01-12T15:42:42.326Z,15.48
2023-01-12T15:45:28.522Z,14.18
2023-01-12T15:47:55.638Z,18.83
2023-01-12T15:50:22.272Z,13.18
2023-01-12T15:52:49.177Z,14.98
2023-01-12T15:55:18.580Z,14.05
2023-01-12T15:57:45.270Z,17.08
2023-01-12T16:00:18.958Z,16.23
2023-01-12T16:02:47.934Z,13.80
2023-01-12T16:05:16.897Z,15.57
2023-01-12T16:07:43.759Z,18.33
2023-01-12T16:10:11.630Z,19.80
2023-01-12T16:12:38.462Z,15.70
2023-01-12T16:15:13.691Z,18.45
2023-01-12T16:17:40.317Z,19.80
2023-01-12T16:20:07.673Z,24.92
2023-01-12T16:22:34.354Z,19.85
2023-01-12T16:25:01.017Z,17.77
2023-01-12T16:27:28.094Z,15.88
2023-01-12T16:29:55.013Z,20.17
2023-01-12T16:32:26.682Z,19.85
2023-01-12T16:34:53.796Z,14.77
2023-01-12T16:37:23.276Z,18.80
2023-01-12T16:39:50.240Z,16.77
2023-01-12T16:42:17.159Z,22.27
2023-01-12T16:44:43.765Z,18.63
2023-01-12T16:47:13.943Z,16.50
2023-01-12T16:49:40.739Z,18.95
2023-01-12T16:52:09.432Z,20.50
2023-01-12T16:54:41.695Z,19.77
2023-01-12T16:59:35.613Z,19.38
2023-01-12T17:02:07.781Z,18.70
2023-01-12T17:04:36.011Z,17.73
2023-01-12T17:07:03.950Z,21.17
2023-01-12T17:09:31.321Z,18.73
2023-01-12T17:11:59.703Z,23.27
2023-01-12T17:14:27.869Z,21.80
2023-01-12T17:16:57.353Z,19.67
2023-01-12T17:19:26.256Z,21.52
2023-01-12T17:21:55.017Z,18.45
2023-01-12T17:24:22.450Z,16.27
2023-01-12T17:26:51.433Z,16.50
2023-01-12T17:29:18.544Z,14.20
2023-01-12T17:31:45.396Z,13.70
2023-01-12T17:34:13.350Z,15.00
2023-01-12T17:36:40.808Z,13.65
2023-01-12T17:39:08.378Z,13.60
2023-01-12T17:41:54.077Z,11.85
2023-01-12T17:44:21.263Z,12.23
2023-01-12T17:46:48.424Z,13.45
2023-01-12T17:49:15.557Z,12.73
2023-01-12T17:51:42.304Z,12.80
2023-01-12T17:54:12.216Z,11.52
2023-01-12T17:56:38.857Z,11.70
2023-01-12T17:59:05.901Z,17.90
2023-01-12T18:01:34.890Z,15.63
2023-01-12T18:04:02.020Z,11.90
2023-01-12T18:06:29.082Z,15.23
2023-01-12T18:08:56.955Z,14.40
2023-01-12T18:11:23.780Z,13.15
2023-01-12T18:13:50.426Z,12.52
2023-01-12T18:16:17.643Z,16.38
2023-01-12T18:18:45.055Z,15.40
2023-01-12T18:21:14.882Z,13.73
2023-01-12T18:23:43.668Z,17.52
2023-01-12T18:26:16.021Z,14.93
2023-01-12T18:31:13.306Z,17.33
2023-01-12T18:33:40.239Z,15.13
2023-01-12T18:36:22.332Z,16.80
2023-01-12T18:38:51.133Z,15.05
2023-01-12T18:41:38.013Z,16.50
2023-01-12T18:44:06.404Z,14.55
2023-01-12T18:46:53.325Z,14.00
2023-01-12T18:49:25.043Z,17.13
2023-01-12T18:52:10.827Z,15.02
2023-01-12T18:54:48.241Z,15.40
2023-01-12T18:57:19.627Z,19.98
2023-01-12T18:59:47.763Z,18.73
2023-01-12T19:02:16.696Z,15.60
2023-01-12T19:04:50.227Z,13.60
2023-01-12T19:07:51.098Z,16.90
2023-01-12T19:10:18.112Z,13.90
2023-01-12T19:12:46.203Z,14.57
2023-01-12T19:15:32.373Z,16.40
2023-01-12T19:17:59.251Z,15.50
2023-01-12T19:20:30.433Z,12.20
2023-01-12T19:23:17.707Z,14.80
2023-01-12T19:26:03.037Z,11.18
2023-01-12T19:28:32.900Z,10.82
2023-01-12T19:31:01.366Z,9.77
2023-01-12T19:33:28.665Z,12.07
2023-01-12T19:35:55.537Z,9.20
2023-01-12T19:38:22.808Z,12.90
2023-01-12T19:40:54.364Z,12.75
2023-01-12T19:43:26.321Z,10.48
2023-01-12T19:45:59.213Z,12.13
2023-01-12T19:48:27.011Z,12.23
2023-01-12T19:50:54.088Z,15.38
2023-01-12T19:53:28.290Z,14.27
2023-01-12T19:55:55.178Z,12.90
2023-01-12T19:58:22.413Z,12.10
2023-01-12T20:00:50.159Z,11.82
2023-01-12T20:03:19.200Z,15.52
2023-01-12T20:05:53.538Z,11.48
2023-01-12T20:08:23.280Z,11.52
2023-01-12T20:10:58.081Z,11.23
2023-01-12T20:13:25.722Z,13.18
2023-01-12T20:15:53.349Z,11.68
2023-01-12T20:18:20.231Z,11.05
2023-01-12T20:20:48.713Z,11.48
2023-01-12T20:23:16.058Z,12.20
2023-01-12T20:25:43.902Z,9.73
2023-01-12T20:28:13.358Z,10.88
2023-01-12T20:30:41.882Z,9.48
2023-01-12T20:33:09.403Z,11.65
2023-01-12T20:35:38.539Z,11.38
2023-01-12T20:38:15.779Z,13.48
2023-01-12T20:40:45.131Z,10.23
2023-01-12T20:43:12.441Z,10.65
2023-01-12T20:45:42.051Z,11.45
2023-01-12T20:48:10.788Z,8.48
2023-01-12T20:50:46.317Z,9.70
2023-01-12T20:53:15.321Z,10.07
2023-01-12T20:55:48.185Z,12.00
2023-01-12T20:58:15.109Z,9.98
2023-01-12T21:00:42.366Z,8.70
2023-01-12T21:03:09.149Z,9.32
2023-01-12T21:05:35.929Z,8.98
2023-01-12T21:08:08.409Z,11.50
2023-01-12T21:10:36.382Z,9.23
2023-01-12T21:13:03.551Z,10.52
2023-01-12T21:15:30.428Z,12.18
2023-01-12T21:17:57.529Z,10.18
2023-01-12T21:20:24.310Z,9.23
2023-01-12T21:22:51.047Z,10.00
2023-01-12T21:25:18.419Z,9.48
2023-01-12T21:27:45.133Z,9.70
2023-01-12T21:30:12.710Z,9.27
2023-01-12T21:32:43.560Z,8.25
2023-01-12T21:35:10.183Z,8.55
2023-01-12T21:37:36.954Z,8.73
2023-01-12T21:40:04.447Z,8.98
2023-01-12T21:42:50.318Z,8.65
2023-01-12T21:45:17.210Z,9.88
2023-01-12T21:47:46.355Z,10.40
2023-01-12T21:50:13.147Z,11.50
2023-01-12T21:52:41.508Z,10.40
2023-01-12T21:55:11.345Z,9.50
2023-01-12T21:57:38.004Z,8.25
2023-01-12T22:00:05.215Z,7.47
2023-01-12T22:02:34.030Z,12.25
2023-01-12T22:05:00.654Z,8.85
2023-01-12T22:07:28.049Z,12.05
2023-01-12T22:09:55.132Z,8.15
2023-01-12T22:12:21.714Z,11.48
2023-01-12T22:14:48.288Z,9.50
2023-01-12T22:17:15.085Z,11.52
2023-01-12T22:19:41.681Z,11.32
2023-01-12T22:22:08.266Z,11.30
2023-01-12T22:24:34.866Z,11.73
2023-01-12T22:27:02.494Z,13.10
2023-01-12T22:29:29.581Z,13.20
2023-01-12T22:31:56.220Z,15.43
2023-01-12T22:34:25.035Z,13.43
2023-01-12T22:36:51.799Z,13.85
2023-01-12T22:39:18.370Z,16.20
2023-01-12T22:41:44.977Z,15.95
2023-01-12T22:44:11.615Z,12.85
2023-01-12T22:46:38.572Z,12.32
2023-01-12T22:49:05.178Z,15.45
2023-01-12T22:51:31.785Z,15.98
2023-01-12T22:53:58.818Z,14.75
2023-01-12T22:56:25.646Z,12.93
2023-01-12T22:58:55.206Z,13.07
2023-01-12T23:01:23.386Z,14.30
2023-01-12T23:03:54.273Z,16.13
2023-01-12T23:06:22.490Z,15.55
2023-01-12T23:08:50.132Z,14.90
2023-01-12T23:11:22.950Z,17.08
2023-01-12T23:13:50.096Z,17.98
2023-01-12T23:16:17.790Z,16.83
2023-01-12T23:18:46.206Z,16.08
2023-01-12T23:21:24.911Z,15.77
2023-01-12T23:23:57.139Z,14.50
2023-01-12T23:28:57.264Z,15.48
2023-01-12T23:31:26.705Z,13.98
2023-01-12T23:33:53.520Z,13.55
2023-01-12T23:36:23.007Z,14.05
2023-01-12T23:38:58.049Z,13.80
2023-01-12T23:41:27.696Z,14.32
2023-01-12T23:43:57.639Z,13.68
2023-01-12T23:46:24.632Z,14.70
2023-01-12T23:48:52.988Z,16.70
2023-01-12T23:51:20.328Z,14.65
2023-01-12T23:53:47.319Z,16.17
2023-01-12T23:56:16.493Z,12.25
2023-01-12T23:58:43.783Z,15.23
